Time;durP1;ratioP1;P1;durP2;ratioP2;P2;SDS_P1;SDS_P2;PMS_P1;PMS_P2;Temp;Humidity;BMP_temperature;BMP_pressure;BME280_temperature;BME280_humidity;BME280_pressure;Samples;Min_cycle;Max_cycle;Signal;HPM_P1;HPM_P2
2023/04/27 00:00:25;;;;;;;8.88;3.72;;;3.70;99.90;;;;;;5038910;28;20409;-70
2023/04/27 00:02:52;;;;;;;7.50;3.63;;;3.60;99.90;;;;;;5038902;28;20067;-70
2023/04/27 00:05:17;;;;;;;7.88;4.10;;;3.60;99.90;;;;;;5038852;28;20522;-70
2023/04/27 00:07:43;;;;;;;9.55;3.83;;;3.60;99.90;;;;;;5038693;28;20127;-71
2023/04/27 00:10:09;;;;;;;8.15;4.18;;;3.50;99.90;;;;;;5038985;28;20076;-71
2023/04/27 00:12:34;;;;;;;7.78;3.67;;;3.40;99.90;;;;;;5022088;28;20460;-70
2023/04/27 00:15:00;;;;;;;8.73;3.90;;;3.40;99.90;;;;;;5022105;28;20082;-70
2023/04/27 00:17:26;;;;;;;7.38;3.70;;;3.40;99.90;;;;;;5038751;28;20032;-70
2023/04/27 00:19:52;;;;;;;9.55;4.10;;;3.40;99.90;;;;;;5038563;28;20091;-71
2023/04/27 00:22:17;;;;;;;9.13;4.03;;;3.30;99.90;;;;;;5038752;28;20592;-71
2023/04/27 00:24:43;;;;;;;7.50;4.25;;;3.30;99.90;;;;;;5038495;28;20124;-71
2023/04/27 00:27:09;;;;;;;5.45;4.10;;;3.30;99.90;;;;;;5038616;28;20036;-70
2023/04/27 00:29:34;;;;;;;7.80;3.85;;;3.30;99.90;;;;;;5038428;28;20459;-70
2023/04/27 00:32:00;;;;;;;9.65;3.92;;;3.30;99.90;;;;;;5021708;28;20080;-70
2023/04/27 00:34:25;;;;;;;10.30;4.88;;;3.30;99.90;;;;;;5021831;28;20091;-70
2023/04/27 00:36:51;;;;;;;6.30;4.05;;;3.30;99.90;;;;;;5038239;28;20068;-70
2023/04/27 00:39:17;;;;;;;9.27;3.85;;;3.20;99.90;;;;;;5038454;28;20052;-70
2023/04/27 00:41:42;;;;;;;6.25;3.80;;;3.20;99.90;;;;;;5038245;28;20458;-70
2023/04/27 00:44:08;;;;;;;9.88;4.10;;;3.20;99.90;;;;;;5038156;28;20052;-70
2023/04/27 00:46:35;;;;;;;6.90;4.00;;;3.20;99.90;;;;;;5021366;28;20037;-70
2023/04/27 00:49:01;;;;;;;8.60;3.95;;;3.20;99.90;;;;;;5038044;28;20052;-70
2023/04/27 00:51:29;;;;;;;7.22;4.35;;;3.20;99.90;;;;;;5037906;28;20246;-70
2023/04/27 00:53:56;;;;;;;5.63;4.30;;;3.20;99.90;;;;;;5038166;28;20059;-70
2023/04/27 00:56:22;;;;;;;11.55;4.20;;;3.20;99.90;;;;;;5037650;28;20037;-70
2023/04/27 00:58:48;;;;;;;9.90;4.55;;;3.20;99.90;;;;;;5037797;28;20058;-71
2023/04/27 01:01:14;;;;;;;7.72;4.38;;;3.20;99.90;;;;;;5038012;28;20087;-71
2023/04/27 01:03:40;;;;;;;6.82;4.20;;;3.10;99.90;;;;;;5037780;28;20048;-70
2023/04/27 01:06:06;;;;;;;10.90;4.53;;;3.10;99.90;;;;;;5037693;28;20040;-70
2023/04/27 01:08:32;;;;;;;6.60;5.00;;;3.10;99.90;;;;;;5037767;28;20124;-70
2023/04/27 01:10:57;;;;;;;7.18;4.65;;;3.10;99.90;;;;;;5037899;28;20040;-70
2023/04/27 01:13:23;;;;;;;8.07;5.10;;;3.10;99.90;;;;;;5037528;28;20079;-70
2023/04/27 01:15:48;;;;;;;8.73;4.00;;;3.10;99.90;;;;;;5037822;28;20045;-70
2023/04/27 01:18:14;;;;;;;8.82;4.32;;;3.00;99.90;;;;;;5037439;28;20508;-70
2023/04/27 01:20:41;;;;;;;8.68;4.15;;;3.00;99.90;;;;;;5037741;28;20071;-70
2023/04/27 01:23:06;;;;;;;7.43;4.18;;;3.00;99.90;;;;;;5037422;28;20044;-70
2023/04/27 01:25:32;;;;;;;9.10;4.40;;;2.90;99.90;;;;;;5037282;28;20128;-70
2023/04/27 01:27:58;;;;;;;9.85;4.30;;;2.90;99.90;;;;;;5037272;28;20102;-70
2023/04/27 01:30:23;;;;;;;6.55;4.45;;;2.90;99.90;;;;;;5037570;28;20108;-70
2023/04/27 01:32:49;;;;;;;7.63;4.90;;;2.90;99.90;;;;;;5020999;28;20576;-70
2023/04/27 01:35:15;;;;;;;8.95;5.45;;;2.80;99.90;;;;;;5037139;28;20508;-70
2023/04/27 01:37:41;;;;;;;7.80;4.20;;;2.80;99.90;;;;;;5037105;28;20041;-70
2023/04/27 01:40:07;;;;;;;6.50;4.45;;;2.80;99.90;;;;;;5037284;28;20045;-70
2023/04/27 01:42:33;;;;;;;8.75;4.57;;;2.70;99.90;;;;;;5037084;28;20087;-70
2023/04/27 01:44:59;;;;;;;13.55;5.18;;;2.70;99.90;;;;;;5054856;28;20067;-70
2023/04/27 01:47:26;;;;;;;8.38;5.00;;;2.70;99.90;;;;;;5020500;28;20037;-70
2023/04/27 01:49:51;;;;;;;8.68;5.10;;;2.80;99.90;;;;;;5036881;28;20501;-70
2023/04/27 01:52:17;;;;;;;8.77;4.70;;;2.80;99.90;;;;;;5036922;28;20044;-71
2023/04/27 01:54:43;;;;;;;9.45;5.38;;;2.80;99.90;;;;;;5036827;28;20455;-70
2023/04/27 01:57:08;;;;;;;7.20;4.65;;;2.80;99.90;;;;;;5036965;28;20033;-70
2023/04/27 01:59:34;;;;;;;8.15;5.05;;;2.80;99.90;;;;;;5036711;28;20531;-70
2023/04/27 02:01:59;;;;;;;11.88;5.13;;;2.60;99.90;;;;;;5036691;28;20037;-70
2023/04/27 02:04:25;;;;;;;6.45;4.50;;;2.60;99.90;;;;;;5036897;28;20045;-70
2023/04/27 02:06:51;;;;;;;11.05;5.10;;;2.60;99.90;;;;;;5035948;28;20408;-70
2023/04/27 02:09:16;;;;;;;13.10;5.90;;;2.60;99.90;;;;;;5020093;28;20128;-70
2023/04/27 02:11:42;;;;;;;7.30;4.50;;;2.50;99.90;;;;;;5036608;28;20045;-70
2023/04/27 02:14:07;;;;;;;7.78;5.57;;;2.50;99.90;;;;;;5036442;28;20416;-70
2023/04/27 02:16:33;;;;;;;8.10;5.05;;;2.50;99.90;;;;;;5036323;28;20124;-71
2023/04/27 02:18:59;;;;;;;8.45;5.10;;;2.50;99.90;;;;;;5036639;28;20040;-70
2023/04/27 02:21:24;;;;;;;7.03;4.80;;;2.50;99.90;;;;;;5036261;28;20033;-70
2023/04/27 02:23:50;;;;;;;6.35;4.80;;;2.50;99.90;;;;;;5019784;28;20049;-70
2023/04/27 02:26:21;;;;;;;7.43;5.20;;;2.50;99.90;;;;;;5053985;28;20041;-70
2023/04/27 02:28:47;;;;;;;9.07;4.65;;;2.60;99.90;;;;;;5054041;28;20033;-71
2023/04/27 02:31:13;;;;;;;12.75;4.95;;;2.50;99.90;;;;;;5036267;28;20525;-71
2023/04/27 02:33:40;;;;;;;8.73;5.10;;;2.50;99.90;;;;;;5036035;28;20040;-70
2023/04/27 02:36:07;;;;;;;10.98;5.22;;;2.50;99.90;;;;;;5036025;28;20052;-70
2023/04/27 02:38:33;;;;;;;14.85;5.75;;;2.60;99.90;;;;;;5036131;28;20119;-70
2023/04/27 02:40:58;;;;;;;10.63;5.30;;;2.60;99.90;;;;;;5035880;28;20470;-70
2023/04/27 02:43:24;;;;;;;9.93;5.40;;;2.60;99.90;;;;;;5036189;28;20037;-70
2023/04/27 02:45:50;;;;;;;9.38;5.63;;;2.60;99.90;;;;;;5019295;28;20520;-70
2023/04/27 02:48:15;;;;;;;10.20;5.93;;;2.60;99.90;;;;;;5036080;28;20106;-70
2023/04/27 02:50:42;;;;;;;7.45;5.05;;;2.60;99.90;;;;;;5036059;28;20048;-70
2023/04/27 02:53:08;;;;;;;12.73;5.88;;;2.70;99.90;;;;;;5019176;28;20080;-70
2023/04/27 02:55:34;;;;;;;9.98;5.68;;;2.70;99.90;;;;;;5035656;28;20095;-70
2023/04/27 02:58:00;;;;;;;8.57;5.32;;;2.60;99.90;;;;;;5019044;28;20037;-70
2023/04/27 03:00:26;;;;;;;8.18;4.82;;;2.70;99.90;;;;;;5035841;28;20052;-70
2023/04/27 03:02:51;;;;;;;7.18;5.30;;;2.60;99.90;;;;;;5035565;28;20044;-70
2023/04/27 03:05:17;;;;;;;7.82;4.97;;;2.60;99.90;;;;;;5035471;28;20060;-70
2023/04/27 03:07:43;;;;;;;12.18;5.22;;;2.70;99.90;;;;;;5035419;28;20052;-70
2023/04/27 03:10:09;;;;;;;9.80;5.40;;;2.60;99.90;;;;;;5035515;28;20051;-71
2023/04/27 03:12:35;;;;;;;8.50;5.28;;;2.60;99.90;;;;;;5035467;28;20040;-70
2023/04/27 03:15:01;;;;;;;9.02;5.78;;;2.60;99.90;;;;;;5035685;28;20040;-70
2023/04/27 03:17:27;;;;;;;8.98;5.43;;;2.50;99.90;;;;;;5035427;28;20581;-70
2023/04/27 03:19:53;;;;;;;8.60;5.32;;;2.50;99.90;;;;;;5035082;28;20044;-70
2023/04/27 03:22:18;;;;;;;8.25;5.30;;;2.50;99.90;;;;;;5035319;28;20456;-70
2023/04/27 03:24:44;;;;;;;11.02;5.65;;;2.50;99.90;;;;;;5019030;28;20039;-70
2023/04/27 03:27:10;;;;;;;12.93;6.22;;;2.50;99.90;;;;;;5035185;28;20091;-70
2023/04/27 03:29:36;;;;;;;11.00;6.43;;;2.40;99.90;;;;;;5035174;28;20036;-70
2023/04/27 03:32:03;;;;;;;10.30;6.00;;;2.40;99.90;;;;;;5035243;28;20056;-70
2023/04/27 03:34:29;;;;;;;8.75;6.07;;;2.30;99.90;;;;;;5035411;28;20489;-70
2023/04/27 03:36:55;;;;;;;7.95;5.07;;;2.30;99.90;;;;;;5035117;28;20072;-70
2023/04/27 03:39:21;;;;;;;9.50;5.85;;;2.20;99.90;;;;;;5018589;28;20033;-70
2023/04/27 03:41:46;;;;;;;10.45;5.90;;;2.10;99.90;;;;;;5035337;28;20047;-70
2023/04/27 03:44:12;;;;;;;9.43;5.70;;;2.10;99.90;;;;;;5035043;28;20417;-70
2023/04/27 03:46:38;;;;;;;9.48;5.18;;;2.10;99.90;;;;;;5018748;28;20065;-70
2023/04/27 03:49:03;;;;;;;8.68;5.57;;;2.10;99.90;;;;;;5018636;28;20508;-70
2023/04/27 03:51:32;;;;;;;8.98;4.90;;;2.10;99.90;;;;;;5035187;28;20037;-70
2023/04/27 03:53:58;;;;;;;10.95;5.15;;;2.10;99.90;;;;;;5035254;28;20045;-70
2023/04/27 03:56:24;;;;;;;9.90;5.72;;;2.10;99.90;;;;;;5034826;28;20045;-70
2023/04/27 03:58:50;;;;;;;10.85;5.97;;;2.10;99.90;;;;;;5035148;28;20090;-70
2023/04/27 04:01:17;;;;;;;6.80;4.70;;;2.00;99.90;;;;;;5035201;28;20512;-70
2023/04/27 04:03:43;;;;;;;8.70;5.22;;;2.00;99.90;;;;;;5018444;28;20033;-70
2023/04/27 04:06:09;;;;;;;6.22;4.60;;;2.10;99.90;;;;;;5034888;28;20045;-70
2023/04/27 04:08:36;;;;;;;9.10;5.07;;;2.10;99.90;;;;;;5034902;28;20037;-70
2023/04/27 04:11:02;;;;;;;8.77;5.18;;;2.00;99.90;;;;;;5018263;28;20405;-70
2023/04/27 04:13:28;;;;;;;6.78;4.90;;;2.00;99.90;;;;;;5018163;28;20052;-70
2023/04/27 04:16:14;;;;;;;9.55;5.43;;;2.00;99.90;;;;;;5034987;28;20045;-70
2023/04/27 04:18:40;;;;;;;7.00;4.68;;;2.00;99.90;;;;;;5034975;28;20134;-70
2023/04/27 04:21:05;;;;;;;7.47;5.13;;;2.00;99.90;;;;;;5034638;28;20475;-70
2023/04/27 04:23:31;;;;;;;9.07;5.25;;;2.00;99.90;;;;;;5034738;28;20076;-70
2023/04/27 04:25:57;;;;;;;7.20;5.63;;;2.00;99.90;;;;;;5034976;28;20170;-70
2023/04/27 04:28:23;;;;;;;9.98;5.47;;;2.00;99.90;;;;;;5034601;28;20501;-70
2023/04/27 04:30:49;;;;;;;8.38;5.10;;;2.00;99.90;;;;;;5037356;28;20049;-71
2023/04/27 04:33:16;;;;;;;11.48;5.65;;;2.10;99.90;;;;;;5021803;28;20542;-70
2023/04/27 04:35:42;;;;;;;8.80;5.43;;;2.10;99.90;;;;;;5021812;28;20124;-71
2023/04/27 04:38:08;;;;;;;10.80;5.90;;;2.10;99.90;;;;;;5038127;28;20120;-71
2023/04/27 04:40:33;;;;;;;9.90;6.03;;;2.10;99.90;;;;;;5038181;28;20486;-71
2023/04/27 04:42:59;;;;;;;9.38;6.43;;;2.10;99.90;;;;;;5038165;28;20055;-71
2023/04/27 04:45:25;;;;;;;11.05;6.07;;;2.10;99.90;;;;;;5038120;28;20033;-70
2023/04/27 04:47:53;;;;;;;11.30;6.25;;;2.10;99.90;;;;;;5037994;28;20120;-70
2023/04/27 04:50:18;;;;;;;10.32;6.30;;;2.10;99.90;;;;;;5037978;28;20049;-70
2023/04/27 04:52:44;;;;;;;11.25;6.00;;;2.00;99.90;;;;;;5037907;28;20049;-70
2023/04/27 04:55:10;;;;;;;9.50;5.65;;;2.00;99.90;;;;;;5038204;28;20040;-71
2023/04/27 04:57:36;;;;;;;8.88;6.18;;;2.00;99.90;;;;;;5037780;28;20486;-71
2023/04/27 05:00:10;;;;;;;8.90;5.65;;;2.00;99.90;;;;;;5037866;28;20040;-71
2023/04/27 05:02:36;;;;;;;9.30;6.03;;;2.00;99.90;;;;;;5037857;28;20494;-70
2023/04/27 05:05:02;;;;;;;10.63;6.15;;;2.00;99.90;;;;;;5037998;28;20029;-70
2023/04/27 05:07:27;;;;;;;10.10;6.50;;;2.00;99.90;;;;;;5037615;28;20436;-71
2023/04/27 05:09:53;;;;;;;10.63;6.88;;;2.10;99.90;;;;;;5021487;28;20037;-70
2023/04/27 05:12:19;;;;;;;9.68;6.90;;;2.00;99.90;;;;;;5037742;28;20037;-71
2023/04/27 05:14:44;;;;;;;11.95;7.20;;;2.10;99.90;;;;;;5037581;28;20489;-70
2023/04/27 05:17:11;;;;;;;10.23;7.35;;;2.10;99.90;;;;;;5037439;28;20037;-71
2023/04/27 05:19:36;;;;;;;12.65;7.35;;;2.00;99.90;;;;;;5037470;28;20045;-71
2023/04/27 05:22:02;;;;;;;9.63;6.95;;;2.00;99.90;;;;;;5037474;28;20047;-71
2023/04/27 05:24:27;;;;;;;11.43;7.65;;;2.00;99.90;;;;;;5020942;28;20528;-71
2023/04/27 05:26:53;;;;;;;10.70;7.00;;;2.00;99.90;;;;;;5037310;28;20052;-70
2023/04/27 05:29:20;;;;;;;11.48;7.80;;;2.10;99.90;;;;;;5037295;28;20048;-71
2023/04/27 05:31:45;;;;;;;13.45;7.50;;;2.10;99.90;;;;;;5037211;28;20564;-71
2023/04/27 05:34:12;;;;;;;10.80;7.07;;;2.20;99.90;;;;;;5037250;28;20071;-71
2023/04/27 05:36:37;;;;;;;11.25;6.82;;;2.20;99.90;;;;;;5037140;28;20075;-71
2023/04/27 05:39:03;;;;;;;11.00;6.90;;;2.30;99.90;;;;;;5037370;28;20076;-71
2023/04/27 05:41:29;;;;;;;12.38;6.40;;;2.40;99.90;;;;;;5036098;28;20033;-71
2023/04/27 05:43:55;;;;;;;10.00;6.55;;;2.50;99.90;;;;;;5037283;28;20037;-71
2023/04/27 05:46:21;;;;;;;12.55;6.88;;;2.50;99.90;;;;;;5036788;28;20529;-70
2023/04/27 05:48:46;;;;;;;10.30;6.82;;;2.50;99.90;;;;;;5036983;28;20047;-71
2023/04/27 05:51:12;;;;;;;9.85;6.45;;;2.60;99.90;;;;;;5036857;28;20033;-71
2023/04/27 05:53:38;;;;;;;11.65;6.88;;;2.70;99.90;;;;;;5036857;28;20037;-72
2023/04/27 05:56:05;;;;;;;13.55;7.63;;;2.80;99.90;;;;;;5036749;28;20048;-71
2023/04/27 05:58:32;;;;;;;10.13;7.30;;;2.80;99.90;;;;;;5020159;28;20421;-70
2023/04/27 06:00:58;;;;;;;13.10;7.82;;;2.90;99.90;;;;;;5020189;28;20037;-70
2023/04/27 06:03:24;;;;;;;11.38;7.00;;;3.00;99.90;;;;;;5020250;28;20045;-71
2023/04/27 06:05:54;;;;;;;11.32;7.82;;;3.00;99.90;;;;;;5036638;28;20055;-71
2023/04/27 06:08:20;;;;;;;10.82;7.57;;;3.20;99.90;;;;;;5036509;28;20128;-71
2023/04/27 06:10:46;;;;;;;11.65;7.43;;;3.20;99.90;;;;;;5036521;28;20120;-71
2023/04/27 06:13:11;;;;;;;9.77;6.85;;;3.30;99.90;;;;;;5036397;28;20037;-71
2023/04/27 06:15:37;;;;;;;11.25;7.40;;;3.50;99.90;;;;;;5036410;28;20037;-70
2023/04/27 06:18:03;;;;;;;10.68;6.88;;;3.50;99.90;;;;;;5036319;28;20032;-70
2023/04/27 06:20:28;;;;;;;12.73;7.03;;;3.60;99.90;;;;;;5036368;28;20040;-71
2023/04/27 06:22:54;;;;;;;11.00;7.05;;;3.80;99.90;;;;;;5036262;28;20199;-71
2023/04/27 06:25:19;;;;;;;11.88;6.57;;;3.80;99.90;;;;;;5036192;28;20052;-71
2023/04/27 06:27:46;;;;;;;10.95;6.32;;;4.00;99.90;;;;;;5019685;28;20049;-70
2023/04/27 06:30:12;;;;;;;9.52;6.80;;;4.00;99.90;;;;;;5036159;28;20045;-71
2023/04/27 06:32:37;;;;;;;8.45;5.78;;;4.10;99.90;;;;;;5035949;28;20055;-71
2023/04/27 06:35:03;;;;;;;9.65;6.30;;;4.20;99.90;;;;;;5036085;28;20059;-71
2023/04/27 06:37:29;;;;;;;11.90;6.88;;;4.30;99.90;;;;;;5036129;28;20090;-71
2023/04/27 06:39:55;;;;;;;10.07;6.80;;;4.50;99.90;;;;;;5035981;28;20041;-71
2023/04/27 06:42:20;;;;;;;10.30;6.07;;;4.60;99.90;;;;;;5035881;28;20118;-71
2023/04/27 06:44:46;;;;;;;15.18;6.20;;;4.70;99.90;;;;;;5035902;28;20129;-71
2023/04/27 06:47:12;;;;;;;8.50;5.70;;;4.80;99.90;;;;;;5019468;28;20076;-70
2023/04/27 06:49:37;;;;;;;8.93;6.28;;;5.00;99.90;;;;;;5035759;28;20506;-70
2023/04/27 06:52:04;;;;;;;14.07;5.97;;;5.10;99.90;;;;;;5035760;28;20127;-71
2023/04/27 06:54:30;;;;;;;7.65;5.30;;;5.20;99.90;;;;;;5035991;28;20045;-70
2023/04/27 06:56:55;;;;;;;9.93;5.53;;;5.30;99.90;;;;;;5035644;28;20405;-71
2023/04/27 06:59:21;;;;;;;10.40;5.20;;;5.40;99.90;;;;;;5035887;28;20048;-71
2023/04/27 07:01:47;;;;;;;12.35;5.57;;;5.60;99.90;;;;;;5035670;28;20460;-71
2023/04/27 07:04:12;;;;;;;10.40;5.05;;;5.70;99.90;;;;;;5035534;28;20041;-71
2023/04/27 07:06:38;;;;;;;9.52;5.28;;;5.80;99.90;;;;;;5035696;28;20047;-71
2023/04/27 07:09:04;;;;;;;6.63;5.10;;;5.90;99.90;;;;;;5035799;28;20037;-71
2023/04/27 07:11:30;;;;;;;7.63;5.35;;;6.10;99.90;;;;;;5035349;28;20107;-70
2023/04/27 07:13:56;;;;;;;10.60;5.05;;;6.20;99.90;;;;;;5035691;28;20077;-70
2023/04/27 07:16:21;;;;;;;11.30;4.55;;;6.40;99.90;;;;;;5035561;28;20048;-70
2023/04/27 07:18:47;;;;;;;8.45;4.28;;;6.50;99.90;;;;;;5018962;28;20131;-71
2023/04/27 07:21:13;;;;;;;7.63;4.05;;;6.60;99.90;;;;;;5035342;28;20051;-71
2023/04/27 07:23:40;;;;;;;8.88;3.85;;;6.80;99.90;;;;;;5035299;28;20048;-71
2023/04/27 07:26:06;;;;;;;10.07;4.22;;;6.90;99.90;;;;;;5035203;28;20048;-71
2023/04/27 07:28:34;;;;;;;10.95;3.60;;;7.00;99.90;;;;;;5035434;28;20072;-70
2023/04/27 07:31:00;;;;;;;5.95;3.28;;;7.10;99.90;;;;;;5035179;28;20094;-71
2023/04/27 07:33:26;;;;;;;9.18;3.90;;;7.20;99.90;;;;;;5035066;28;20087;-71
2023/04/27 07:35:52;;;;;;;8.20;3.65;;;7.30;99.90;;;;;;5035378;28;20048;-71
2023/04/27 07:38:18;;;;;;;6.47;3.55;;;7.50;99.90;;;;;;5035300;28;20076;-70
2023/04/27 07:40:45;;;;;;;5.05;2.53;;;7.60;99.90;;;;;;5035139;28;20048;-71
2023/04/27 07:43:11;;;;;;;6.50;3.13;;;7.60;99.90;;;;;;5035054;28;20405;-71
2023/04/27 07:45:38;;;;;;;5.53;2.28;;;7.70;99.90;;;;;;5018778;28;20037;-71
2023/04/27 07:48:04;;;;;;;5.90;3.40;;;7.80;99.90;;;;;;5052962;28;20045;-71
2023/04/27 07:50:30;;;;;;;5.63;2.95;;;7.90;99.90;;;;;;5035091;28;20044;-71
2023/04/27 07:52:56;;;;;;;6.35;3.30;;;8.00;99.90;;;;;;5034932;28;20087;-71
2023/04/27 07:55:23;;;;;;;10.20;3.38;;;8.00;99.40;;;;;;5034949;28;20410;-71
2023/04/27 07:57:51;;;;;;;7.63;2.40;;;8.20;99.80;;;;;;5035083;28;20052;-71
2023/04/27 08:00:17;;;;;;;5.40;2.60;;;8.20;98.40;;;;;;5034888;28;20405;-71
2023/04/27 08:02:42;;;;;;;5.13;2.40;;;8.30;98.00;;;;;;5034824;28;20040;-70
2023/04/27 08:05:08;;;;;;;7.20;2.55;;;8.40;97.30;;;;;;5036697;28;20154;-71
2023/04/27 08:07:34;;;;;;;5.78;2.40;;;8.50;97.00;;;;;;5038711;28;20567;-71
2023/04/27 08:10:00;;;;;;;5.47;2.25;;;8.60;96.30;;;;;;5022314;28;20037;-71
2023/04/27 08:12:25;;;;;;;5.80;2.40;;;8.70;95.60;;;;;;5038844;28;20114;-71
2023/04/27 08:14:51;;;;;;;4.78;2.47;;;8.80;95.00;;;;;;5039002;28;20486;-71
2023/04/27 08:17:17;;;;;;;6.47;1.90;;;8.90;94.80;;;;;;5022047;28;20482;-70
2023/04/27 08:19:43;;;;;;;4.55;2.05;;;9.00;94.50;;;;;;5038860;28;20063;-71
2023/04/27 08:22:09;;;;;;;4.30;1.83;;;9.20;93.90;;;;;;5038544;28;20485;-71
2023/04/27 08:24:35;;;;;;;6.38;2.20;;;9.30;92.50;;;;;;5038783;28;20048;-71
2023/04/27 08:27:02;;;;;;;6.00;1.98;;;9.40;92.60;;;;;;5038923;28;20116;-71
2023/04/27 08:29:28;;;;;;;3.80;1.83;;;9.60;92.00;;;;;;5038738;28;20073;-71
2023/04/27 08:31:54;;;;;;;6.13;2.28;;;9.60;91.30;;;;;;5038549;28;20400;-71
2023/04/27 08:34:19;;;;;;;3.10;1.83;;;9.70;91.10;;;;;;5038259;28;20045;-71
2023/04/27 08:36:45;;;;;;;4.55;2.10;;;9.80;90.90;;;;;;5038206;28;20041;-71
2023/04/27 08:39:11;;;;;;;3.97;1.90;;;9.90;90.30;;;;;;5038244;28;20045;-71
2023/04/27 08:41:42;;;;;;;4.22;2.03;;;9.90;89.20;;;;;;5038185;28;20048;-69
2023/04/27 08:44:08;;;;;;;3.08;1.50;;;10.00;87.30;;;;;;5038418;28;20061;-69
2023/04/27 08:46:33;;;;;;;5.20;2.05;;;10.00;85.60;;;;;;5037875;28;20489;-69
2023/04/27 08:48:59;;;;;;;4.70;1.73;;;10.10;84.40;;;;;;5038135;28;20049;-69
2023/04/27 08:51:26;;;;;;;7.40;2.22;;;10.20;83.40;;;;;;5038026;28;20412;-70
2023/04/27 08:53:56;;;;;;;8.93;2.10;;;10.30;83.90;;;;;;5038021;28;20045;-71
2023/04/27 08:56:24;;;;;;;5.25;2.40;;;10.50;83.10;;;;;;5037929;28;20045;-71
2023/04/27 08:58:51;;;;;;;5.18;2.05;;;10.60;82.20;;;;;;5037891;28;20045;-71
2023/04/27 09:01:17;;;;;;;3.95;2.30;;;10.70;82.70;;;;;;5037862;28;20501;-71
2023/04/27 09:03:45;;;;;;;4.85;1.90;;;10.80;80.40;;;;;;5037792;28;20041;-71
2023/04/27 09:06:11;;;;;;;4.30;2.00;;;10.90;79.50;;;;;;5037713;28;20083;-71
2023/04/27 09:08:48;;;;;;;5.60;1.90;;;11.00;81.40;;;;;;5037736;28;20128;-71
2023/04/27 09:11:15;;;;;;;4.15;2.10;;;11.00;79.50;;;;;;5037626;28;20041;-71
2023/04/27 09:13:44;;;;;;;4.50;2.50;;;11.10;78.60;;;;;;5038605;28;20041;-71
2023/04/27 09:16:12;;;;;;;5.47;1.88;;;11.10;77.90;;;;;;5036271;28;20052;-69
2023/04/27 09:18:41;;;;;;;4.65;1.98;;;11.10;75.70;;;;;;5037534;28;20048;-69
2023/04/27 09:21:07;;;;;;;5.38;2.10;;;11.40;74.20;;;;;;5037429;28;20033;-69
2023/04/27 09:23:39;;;;;;;5.47;2.08;;;11.60;73.70;;;;;;5037640;28;20091;-69
2023/04/27 09:26:07;;;;;;;6.47;2.28;;;11.70;70.80;;;;;;5037411;28;20041;-69
2023/04/27 09:28:34;;;;;;;4.78;2.13;;;11.80;72.90;;;;;;5037317;28;20132;-69
2023/04/27 09:31:04;;;;;;;4.28;2.00;;;12.00;72.90;;;;;;5037314;28;20055;-69
2023/04/27 09:33:34;;;;;;;5.18;2.20;;;12.00;72.10;;;;;;5037225;28;20045;-69
2023/04/27 09:36:02;;;;;;;4.28;2.13;;;12.00;71.50;;;;;;5037224;28;20106;-69
2023/04/27 09:38:30;;;;;;;5.88;2.08;;;11.90;71.70;;;;;;5037351;28;20037;-69
2023/04/27 09:40:55;;;;;;;4.78;2.08;;;11.90;70.60;;;;;;5037046;28;20456;-69
2023/04/27 09:43:22;;;;;;;5.30;2.42;;;12.00;70.90;;;;;;5037382;28;20136;-69
2023/04/27 09:45:49;;;;;;;5.78;2.55;;;12.20;71.10;;;;;;5036955;28;20135;-69
2023/04/27 09:48:15;;;;;;;8.23;2.40;;;12.30;71.20;;;;;;5036950;28;20044;-69
2023/04/27 09:50:44;;;;;;;5.93;2.45;;;12.30;70.30;;;;;;5037263;28;20484;-69
2023/04/27 09:53:12;;;;;;;4.32;2.10;;;12.30;70.50;;;;;;5036821;28;20136;-69
2023/04/27 09:55:59;;;;;;;5.53;2.65;;;12.10;70.00;;;;;;5036786;28;20040;-69
2023/04/27 09:58:56;;;;;;;5.88;2.55;;;12.20;69.20;;;;;;5037540;28;20044;-69
2023/04/27 10:02:04;;;;;;;5.78;2.47;;;12.20;69.00;;;;;;5036785;28;20041;-69
2023/04/27 10:05:01;;;;;;;5.28;2.97;;;12.20;68.20;;;;;;5036741;28;20045;-70
2023/04/27 10:07:27;;;;;;;5.28;2.45;;;12.20;68.90;;;;;;5020328;28;20490;-69
2023/04/27 10:09:53;;;;;;;7.32;2.70;;;12.30;68.60;;;;;;5036525;28;20079;-69
2023/04/27 10:12:27;;;;;;;7.50;2.85;;;12.30;69.20;;;;;;5036382;28;20081;-69
2023/04/27 10:14:58;;;;;;;5.85;2.75;;;12.30;68.40;;;;;;5036371;28;20040;-69
2023/04/27 10:17:35;;;;;;;6.03;2.50;;;12.40;67.20;;;;;;5036345;28;20041;-69
2023/04/27 10:20:06;;;;;;;6.63;2.78;;;12.50;68.30;;;;;;5036330;28;20067;-69
2023/04/27 10:22:48;;;;;;;8.63;2.65;;;12.50;67.40;;;;;;5036545;28;20417;-69
2023/04/27 10:25:37;;;;;;;5.43;2.43;;;12.80;67.30;;;;;;5036253;28;20401;-69
2023/04/27 10:28:03;;;;;;;7.20;2.28;;;13.00;67.30;;;;;;5035688;28;20290;-69
2023/04/27 10:30:36;;;;;;;7.78;3.00;;;13.00;67.60;;;;;;5036202;28;20040;-69
2023/04/27 10:33:08;;;;;;;7.65;3.08;;;13.20;66.20;;;;;;5036092;28;20511;-69
2023/04/27 10:35:35;;;;;;;6.43;3.42;;;13.20;64.30;;;;;;5019641;28;20512;-69
2023/04/27 10:38:08;;;;;;;6.90;3.33;;;13.20;64.30;;;;;;5019528;28;20412;-69
2023/04/27 10:40:34;;;;;;;6.93;3.40;;;13.30;65.00;;;;;;5035976;28;20069;-69
2023/04/27 10:43:11;;;;;;;7.85;2.85;;;13.50;65.30;;;;;;5036147;28;20041;-69
2023/04/27 10:45:37;;;;;;;7.68;2.97;;;13.70;64.50;;;;;;5035798;28;20087;-69
2023/04/27 10:48:04;;;;;;;7.03;3.13;;;13.60;65.20;;;;;;5035769;28;20080;-69
2023/04/27 10:50:30;;;;;;;7.05;2.90;;;13.60;65.00;;;;;;5035986;28;20088;-69
2023/04/27 10:53:02;;;;;;;7.20;3.67;;;13.70;65.80;;;;;;5035631;28;20413;-69
2023/04/27 10:55:30;;;;;;;9.55;3.80;;;13.70;64.80;;;;;;5035688;28;20513;-69
2023/04/27 10:57:56;;;;;;;5.50;3.33;;;13.70;65.20;;;;;;5035639;28;20033;-71
2023/04/27 11:00:24;;;;;;;6.93;3.15;;;13.60;63.60;;;;;;5035605;28;20036;-69
2023/04/27 11:02:50;;;;;;;7.82;3.10;;;13.50;61.90;;;;;;5035818;28;20048;-69
2023/04/27 11:05:17;;;;;;;6.45;2.90;;;13.50;62.30;;;;;;5035820;28;20117;-69
2023/04/27 11:07:43;;;;;;;6.63;3.00;;;13.70;61.60;;;;;;5019030;28;20489;-69
2023/04/27 11:10:13;;;;;;;11.82;3.10;;;13.90;61.90;;;;;;5035576;28;20040;-69
2023/04/27 11:12:39;;;;;;;6.85;2.95;;;14.00;62.20;;;;;;5035522;28;20041;-69
2023/04/27 11:15:06;;;;;;;5.68;3.15;;;14.00;62.60;;;;;;5019033;28;20036;-69
2023/04/27 11:17:31;;;;;;;10.38;2.97;;;13.90;60.90;;;;;;5035301;28;20040;-69
2023/04/27 11:19:57;;;;;;;7.00;2.83;;;13.90;61.60;;;;;;5035340;28;20044;-69
2023/04/27 11:22:23;;;;;;;7.70;3.03;;;13.90;61.90;;;;;;5035359;28;20076;-69
2023/04/27 11:24:50;;;;;;;8.02;3.30;;;14.00;63.30;;;;;;5035241;28;20044;-69
2023/04/27 11:27:16;;;;;;;10.90;2.95;;;14.00;62.60;;;;;;5035164;28;20043;-69
2023/04/27 11:29:42;;;;;;;9.73;2.78;;;14.10;61.40;;;;;;5035248;28;20045;-69
2023/04/27 11:32:17;;;;;;;9.00;2.92;;;14.30;60.90;;;;;;5035139;28;20048;-69
2023/04/27 11:34:49;;;;;;;5.55;3.13;;;14.40;60.90;;;;;;5035161;28;20041;-69
2023/04/27 11:37:24;;;;;;;8.37;3.10;;;14.60;61.10;;;;;;5035097;28;20555;-69
2023/04/27 11:39:50;;;;;;;4.97;2.47;;;14.70;60.20;;;;;;5034391;28;20282;-69
2023/04/27 11:42:21;;;;;;;7.03;3.05;;;14.80;60.70;;;;;;5035344;28;20086;-69
2023/04/27 11:45:06;;;;;;;6.60;2.83;;;14.90;58.80;;;;;;5035088;28;20073;-69
2023/04/27 11:47:33;;;;;;;6.85;3.17;;;15.00;55.70;;;;;;5034822;28;20041;-69
2023/04/27 11:50:03;;;;;;;9.77;3.30;;;15.20;57.20;;;;;;5035282;28;20072;-69
2023/04/27 11:52:36;;;;;;;6.43;2.90;;;15.30;57.10;;;;;;5018774;28;20155;-69
2023/04/27 11:55:03;;;;;;;7.63;2.75;;;15.30;57.00;;;;;;5035202;28;20428;-69
2023/04/27 11:57:31;;;;;;;14.93;3.65;;;15.20;57.50;;;;;;5034882;28;20119;-69
2023/04/27 12:00:01;;;;;;;13.50;3.05;;;15.10;58.30;;;;;;5034876;28;20037;-69
2023/04/27 12:02:28;;;;;;;15.20;3.63;;;15.10;59.30;;;;;;5034852;28;20073;-70
2023/04/27 12:04:53;;;;;;;15.98;3.22;;;15.40;58.60;;;;;;5018712;28;20132;-70
2023/04/27 12:07:19;;;;;;;7.15;3.55;;;15.30;58.40;;;;;;5034784;28;20488;-69
2023/04/27 12:09:45;;;;;;;4.30;2.35;;;15.40;58.10;;;;;;5035112;28;20094;-70
2023/04/27 12:12:12;;;;;;;9.52;3.30;;;15.30;56.70;;;;;;5034764;28;20041;-70
2023/04/27 12:14:39;;;;;;;5.22;2.85;;;15.10;57.10;;;;;;5034815;28;20495;-69
2023/04/27 12:17:05;;;;;;;5.38;2.60;;;15.00;56.00;;;;;;5034883;28;20079;-70
2023/04/27 12:19:30;;;;;;;5.63;2.80;;;14.90;56.40;;;;;;5034723;28;20036;-70
2023/04/27 12:21:57;;;;;;;9.13;3.22;;;14.90;56.10;;;;;;5018265;28;20131;-70
2023/04/27 12:24:23;;;;;;;6.72;3.03;;;14.80;56.20;;;;;;5034749;28;20041;-69
2023/04/27 12:26:50;;;;;;;5.53;3.00;;;14.70;56.70;;;;;;5034842;28;20124;-70
2023/04/27 12:29:15;;;;;;;7.13;2.88;;;14.60;55.70;;;;;;5034748;28;20115;-70
2023/04/27 12:31:41;;;;;;;10.23;2.88;;;14.60;56.60;;;;;;5034812;28;20119;-69
2023/04/27 12:34:07;;;;;;;7.13;2.85;;;14.60;56.90;;;;;;5018536;28;20043;-70
2023/04/27 12:36:32;;;;;;;7.70;2.78;;;14.50;55.70;;;;;;5034585;28;20519;-70
2023/04/27 12:39:10;;;;;;;7.75;2.88;;;14.50;56.30;;;;;;5034902;28;20033;-70
2023/04/27 12:41:36;;;;;;;6.47;3.20;;;14.50;56.20;;;;;;5034895;28;20051;-70
2023/04/27 12:44:01;;;;;;;9.52;2.88;;;14.40;57.10;;;;;;5034560;28;20488;-70
2023/04/27 12:46:27;;;;;;;6.53;3.15;;;14.20;56.30;;;;;;5034634;28;20120;-70
2023/04/27 12:48:55;;;;;;;7.13;3.05;;;14.20;57.60;;;;;;5018142;28;20512;-70